METAR & TAF

RJTK 262128Z 14008KT 9999 FEW012 SCT220 20/18 Q1005 RMK 1ST012 3CI220 A2970
No TAF found for RJTK